sensor_id;sensor_type;location;lat;lon;timestamp;P1;durP1;ratioP1;P2;durP2;ratioP2
12725;SDS011;6427;49.754;6.106;2023-02-26T00:01:44;8.30;;;3.33;;
12725;SDS011;6427;49.754;6.106;2023-02-26T00:04:12;11.47;;;2.80;;
12725;SDS011;6427;49.754;6.106;2023-02-26T00:06:40;5.03;;;2.43;;
12725;SDS011;6427;49.754;6.106;2023-02-26T00:09:08;9.50;;;3.20;;
12725;SDS011;6427;49.754;6.106;2023-02-26T00:11:36;6.77;;;3.33;;
12725;SDS011;6427;49.754;6.106;2023-02-26T00:14:04;9.03;;;3.60;;
12725;SDS011;6427;49.754;6.106;2023-02-26T00:16:32;12.40;;;3.70;;
12725;SDS011;6427;49.754;6.106;2023-02-26T00:19:01;12.03;;;4.97;;
12725;SDS011;6427;49.754;6.106;2023-02-26T00:21:28;10.77;;;5.10;;
12725;SDS011;6427;49.754;6.106;2023-02-26T00:23:55;11.57;;;4.00;;
12725;SDS011;6427;49.754;6.106;2023-02-26T00:26:23;9.90;;;4.57;;
12725;SDS011;6427;49.754;6.106;2023-02-26T00:28:50;11.27;;;4.87;;
12725;SDS011;6427;49.754;6.106;2023-02-26T00:31:19;10.57;;;3.47;;
12725;SDS011;6427;49.754;6.106;2023-02-26T00:33:46;9.90;;;3.73;;
12725;SDS011;6427;49.754;6.106;2023-02-26T00:41:40;6.23;;;3.90;;
12725;SDS011;6427;49.754;6.106;2023-02-26T00:44:08;11.67;;;4.23;;
12725;SDS011;6427;49.754;6.106;2023-02-26T00:46:46;8.97;;;3.57;;
12725;SDS011;6427;49.754;6.106;2023-02-26T00:49:19;9.47;;;3.47;;
12725;SDS011;6427;49.754;6.106;2023-02-26T00:51:55;7.23;;;3.57;;
12725;SDS011;6427;49.754;6.106;2023-02-26T00:54:27;7.57;;;3.50;;
12725;SDS011;6427;49.754;6.106;2023-02-26T00:56:54;12.90;;;4.03;;
12725;SDS011;6427;49.754;6.106;2023-02-26T00:59:21;12.37;;;3.70;;
12725;SDS011;6427;49.754;6.106;2023-02-26T01:01:49;8.43;;;3.47;;
12725;SDS011;6427;49.754;6.106;2023-02-26T01:04:17;6.57;;;3.37;;
12725;SDS011;6427;49.754;6.106;2023-02-26T01:06:52;8.77;;;3.90;;
12725;SDS011;6427;49.754;6.106;2023-02-26T01:09:25;9.70;;;3.70;;
12725;SDS011;6427;49.754;6.106;2023-02-26T01:11:55;9.50;;;3.60;;
12725;SDS011;6427;49.754;6.106;2023-02-26T01:14:23;7.93;;;3.50;;
12725;SDS011;6427;49.754;6.106;2023-02-26T01:17:07;8.93;;;4.00;;
12725;SDS011;6427;49.754;6.106;2023-02-26T01:19:52;9.82;;;4.53;;
12725;SDS011;6427;49.754;6.106;2023-02-26T01:25:26;10.63;;;3.60;;
12725;SDS011;6427;49.754;6.106;2023-02-26T01:27:51;12.97;;;3.57;;
12725;SDS011;6427;49.754;6.106;2023-02-26T01:30:19;9.00;;;4.13;;
12725;SDS011;6427;49.754;6.106;2023-02-26T01:32:58;11.88;;;5.10;;
12725;SDS011;6427;49.754;6.106;2023-02-26T01:35:28;10.63;;;4.82;;
12725;SDS011;6427;49.754;6.106;2023-02-26T01:38:22;9.87;;;3.57;;
12725;SDS011;6427;49.754;6.106;2023-02-26T01:43:36;12.17;;;4.07;;
12725;SDS011;6427;49.754;6.106;2023-02-26T01:46:07;7.67;;;3.73;;
12725;SDS011;6427;49.754;6.106;2023-02-26T01:54:14;11.20;;;4.27;;
12725;SDS011;6427;49.754;6.106;2023-02-26T01:56:42;9.33;;;3.77;;
12725;SDS011;6427;49.754;6.106;2023-02-26T01:59:09;9.27;;;3.10;;
12725;SDS011;6427;49.754;6.106;2023-02-26T02:01:37;8.57;;;3.43;;
12725;SDS011;6427;49.754;6.106;2023-02-26T02:04:05;10.00;;;3.80;;
12725;SDS011;6427;49.754;6.106;2023-02-26T02:06:32;11.90;;;4.12;;
12725;SDS011;6427;49.754;6.106;2023-02-26T02:09:00;11.95;;;4.93;;
12725;SDS011;6427;49.754;6.106;2023-02-26T02:11:27;8.57;;;3.80;;
12725;SDS011;6427;49.754;6.106;2023-02-26T02:14:11;11.23;;;4.20;;
12725;SDS011;6427;49.754;6.106;2023-02-26T02:16:49;8.97;;;3.53;;
12725;SDS011;6427;49.754;6.106;2023-02-26T02:25:07;11.30;;;3.50;;
12725;SDS011;6427;49.754;6.106;2023-02-26T02:27:35;12.80;;;3.63;;
12725;SDS011;6427;49.754;6.106;2023-02-26T02:32:54;11.77;;;3.40;;
12725;SDS011;6427;49.754;6.106;2023-02-26T02:35:23;9.23;;;3.67;;
12725;SDS011;6427;49.754;6.106;2023-02-26T02:40:21;7.20;;;3.13;;
12725;SDS011;6427;49.754;6.106;2023-02-26T02:45:19;6.23;;;2.93;;
12725;SDS011;6427;49.754;6.106;2023-02-26T02:47:47;9.10;;;3.30;;
12725;SDS011;6427;49.754;6.106;2023-02-26T02:50:16;6.90;;;2.97;;
12725;SDS011;6427;49.754;6.106;2023-02-26T02:52:49;9.07;;;2.87;;
12725;SDS011;6427;49.754;6.106;2023-02-26T02:55:39;5.47;;;2.63;;
12725;SDS011;6427;49.754;6.106;2023-02-26T02:57:45;10.47;;;2.30;;
12725;SDS011;6427;49.754;6.106;2023-02-26T03:00:17;8.57;;;2.53;;
12725;SDS011;6427;49.754;6.106;2023-02-26T03:02:47;9.67;;;2.90;;
12725;SDS011;6427;49.754;6.106;2023-02-26T03:05:19;4.10;;;2.10;;
12725;SDS011;6427;49.754;6.106;2023-02-26T03:07:54;8.43;;;2.87;;
12725;SDS011;6427;49.754;6.106;2023-02-26T03:10:18;10.77;;;3.00;;
12725;SDS011;6427;49.754;6.106;2023-02-26T03:12:46;6.57;;;2.77;;
12725;SDS011;6427;49.754;6.106;2023-02-26T03:15:13;6.90;;;2.43;;
12725;SDS011;6427;49.754;6.106;2023-02-26T03:17:53;9.93;;;2.87;;
12725;SDS011;6427;49.754;6.106;2023-02-26T03:25:37;6.70;;;2.10;;
12725;SDS011;6427;49.754;6.106;2023-02-26T03:30:54;4.50;;;2.10;;
12725;SDS011;6427;49.754;6.106;2023-02-26T03:33:37;7.17;;;2.30;;
12725;SDS011;6427;49.754;6.106;2023-02-26T03:36:03;6.55;;;3.05;;
12725;SDS011;6427;49.754;6.106;2023-02-26T03:38:41;7.78;;;2.75;;
12725;SDS011;6427;49.754;6.106;2023-02-26T03:41:12;5.00;;;2.63;;
12725;SDS011;6427;49.754;6.106;2023-02-26T03:43:40;5.67;;;2.43;;
12725;SDS011;6427;49.754;6.106;2023-02-26T03:46:06;3.63;;;1.93;;
12725;SDS011;6427;49.754;6.106;2023-02-26T03:48:34;5.40;;;2.33;;
12725;SDS011;6427;49.754;6.106;2023-02-26T03:51:07;7.20;;;2.57;;
12725;SDS011;6427;49.754;6.106;2023-02-26T03:53:43;5.67;;;2.50;;
12725;SDS011;6427;49.754;6.106;2023-02-26T03:56:09;6.37;;;2.83;;
12725;SDS011;6427;49.754;6.106;2023-02-26T03:58:33;10.17;;;2.63;;
12725;SDS011;6427;49.754;6.106;2023-02-26T04:01:03;4.77;;;2.37;;
12725;SDS011;6427;49.754;6.106;2023-02-26T04:03:42;8.83;;;2.80;;
12725;SDS011;6427;49.754;6.106;2023-02-26T04:06:03;8.30;;;2.50;;
12725;SDS011;6427;49.754;6.106;2023-02-26T04:08:30;5.77;;;2.40;;
12725;SDS011;6427;49.754;6.106;2023-02-26T04:11:03;3.97;;;2.43;;
12725;SDS011;6427;49.754;6.106;2023-02-26T04:13:26;6.50;;;3.12;;
12725;SDS011;6427;49.754;6.106;2023-02-26T04:15:54;6.70;;;2.80;;
12725;SDS011;6427;49.754;6.106;2023-02-26T04:18:22;5.10;;;2.20;;
12725;SDS011;6427;49.754;6.106;2023-02-26T04:20:50;8.60;;;2.77;;
12725;SDS011;6427;49.754;6.106;2023-02-26T04:23:17;6.07;;;2.30;;
12725;SDS011;6427;49.754;6.106;2023-02-26T04:25:45;4.43;;;2.50;;
12725;SDS011;6427;49.754;6.106;2023-02-26T04:28:13;7.07;;;2.80;;
12725;SDS011;6427;49.754;6.106;2023-02-26T04:30:41;5.23;;;2.90;;
12725;SDS011;6427;49.754;6.106;2023-02-26T04:33:09;5.47;;;2.27;;
12725;SDS011;6427;49.754;6.106;2023-02-26T04:35:36;5.37;;;2.50;;
12725;SDS011;6427;49.754;6.106;2023-02-26T04:38:04;6.17;;;2.77;;
12725;SDS011;6427;49.754;6.106;2023-02-26T04:40:32;8.40;;;2.53;;
12725;SDS011;6427;49.754;6.106;2023-02-26T04:43:00;4.53;;;2.80;;
12725;SDS011;6427;49.754;6.106;2023-02-26T04:45:27;7.10;;;2.73;;
12725;SDS011;6427;49.754;6.106;2023-02-26T04:47:56;5.27;;;3.03;;
12725;SDS011;6427;49.754;6.106;2023-02-26T04:50:23;4.57;;;2.53;;
12725;SDS011;6427;49.754;6.106;2023-02-26T04:52:51;4.80;;;2.70;;
12725;SDS011;6427;49.754;6.106;2023-02-26T04:55:18;7.57;;;3.47;;
12725;SDS011;6427;49.754;6.106;2023-02-26T04:57:46;6.20;;;2.97;;
12725;SDS011;6427;49.754;6.106;2023-02-26T05:00:14;5.93;;;2.97;;
12725;SDS011;6427;49.754;6.106;2023-02-26T05:02:42;6.90;;;2.73;;
12725;SDS011;6427;49.754;6.106;2023-02-26T05:05:09;5.87;;;3.40;;
12725;SDS011;6427;49.754;6.106;2023-02-26T05:07:37;8.25;;;3.95;;
12725;SDS011;6427;49.754;6.106;2023-02-26T05:10:05;5.87;;;2.90;;
12725;SDS011;6427;49.754;6.106;2023-02-26T05:12:32;7.73;;;2.90;;
12725;SDS011;6427;49.754;6.106;2023-02-26T05:15:00;6.17;;;2.67;;
12725;SDS011;6427;49.754;6.106;2023-02-26T05:17:27;7.27;;;3.13;;
12725;SDS011;6427;49.754;6.106;2023-02-26T05:19:55;8.43;;;2.83;;
12725;SDS011;6427;49.754;6.106;2023-02-26T05:22:23;5.20;;;3.00;;
12725;SDS011;6427;49.754;6.106;2023-02-26T05:24:51;5.53;;;2.97;;
12725;SDS011;6427;49.754;6.106;2023-02-26T05:27:18;6.30;;;2.70;;
12725;SDS011;6427;49.754;6.106;2023-02-26T05:29:46;4.87;;;2.97;;
12725;SDS011;6427;49.754;6.106;2023-02-26T05:32:13;7.30;;;3.10;;
12725;SDS011;6427;49.754;6.106;2023-02-26T05:34:41;7.87;;;3.00;;
12725;SDS011;6427;49.754;6.106;2023-02-26T05:37:09;4.70;;;2.87;;
12725;SDS011;6427;49.754;6.106;2023-02-26T05:39:36;4.40;;;2.70;;
12725;SDS011;6427;49.754;6.106;2023-02-26T05:42:04;7.10;;;3.43;;
12725;SDS011;6427;49.754;6.106;2023-02-26T05:44:31;6.55;;;4.00;;
12725;SDS011;6427;49.754;6.106;2023-02-26T05:46:59;5.43;;;3.30;;
12725;SDS011;6427;49.754;6.106;2023-02-26T05:49:27;5.77;;;4.00;;
12725;SDS011;6427;49.754;6.106;2023-02-26T05:51:54;8.37;;;3.83;;
12725;SDS011;6427;49.754;6.106;2023-02-26T05:54:22;7.15;;;4.55;;
12725;SDS011;6427;49.754;6.106;2023-02-26T05:56:50;9.32;;;4.35;;
12725;SDS011;6427;49.754;6.106;2023-02-26T05:59:18;7.07;;;4.30;;
12725;SDS011;6427;49.754;6.106;2023-02-26T06:01:46;5.72;;;4.05;;
12725;SDS011;6427;49.754;6.106;2023-02-26T06:04:13;6.07;;;3.40;;
12725;SDS011;6427;49.754;6.106;2023-02-26T06:06:41;4.80;;;2.77;;
12725;SDS011;6427;49.754;6.106;2023-02-26T06:09:08;6.10;;;3.23;;
12725;SDS011;6427;49.754;6.106;2023-02-26T06:11:36;6.07;;;3.13;;
12725;SDS011;6427;49.754;6.106;2023-02-26T06:14:03;4.20;;;3.10;;
12725;SDS011;6427;49.754;6.106;2023-02-26T06:16:31;8.57;;;4.28;;
12725;SDS011;6427;49.754;6.106;2023-02-26T06:18:59;5.77;;;3.40;;
12725;SDS011;6427;49.754;6.106;2023-02-26T06:21:27;6.07;;;3.17;;
12725;SDS011;6427;49.754;6.106;2023-02-26T06:23:54;8.63;;;3.40;;
12725;SDS011;6427;49.754;6.106;2023-02-26T06:26:22;5.97;;;3.87;;
12725;SDS011;6427;49.754;6.106;2023-02-26T06:28:51;6.90;;;3.43;;
12725;SDS011;6427;49.754;6.106;2023-02-26T06:31:18;11.10;;;3.70;;
12725;SDS011;6427;49.754;6.106;2023-02-26T06:33:46;8.23;;;3.90;;
12725;SDS011;6427;49.754;6.106;2023-02-26T06:36:13;9.70;;;4.65;;
12725;SDS011;6427;49.754;6.106;2023-02-26T06:38:41;6.63;;;4.33;;
12725;SDS011;6427;49.754;6.106;2023-02-26T06:41:08;5.97;;;4.20;;
12725;SDS011;6427;49.754;6.106;2023-02-26T06:43:37;8.70;;;3.87;;
12725;SDS011;6427;49.754;6.106;2023-02-26T06:46:04;6.47;;;4.10;;
12725;SDS011;6427;49.754;6.106;2023-02-26T06:48:32;7.43;;;3.83;;
12725;SDS011;6427;49.754;6.106;2023-02-26T06:50:59;8.07;;;4.10;;
12725;SDS011;6427;49.754;6.106;2023-02-26T06:53:27;6.43;;;4.50;;
12725;SDS011;6427;49.754;6.106;2023-02-26T06:55:54;6.87;;;4.17;;
12725;SDS011;6427;49.754;6.106;2023-02-26T06:58:22;8.03;;;4.30;;
12725;SDS011;6427;49.754;6.106;2023-02-26T07:00:50;9.38;;;5.47;;
12725;SDS011;6427;49.754;6.106;2023-02-26T07:03:17;8.27;;;4.80;;
12725;SDS011;6427;49.754;6.106;2023-02-26T07:05:45;7.47;;;4.10;;
12725;SDS011;6427;49.754;6.106;2023-02-26T07:08:13;8.37;;;4.47;;
12725;SDS011;6427;49.754;6.106;2023-02-26T07:10:41;7.33;;;4.30;;
12725;SDS011;6427;49.754;6.106;2023-02-26T07:13:08;7.93;;;4.03;;
12725;SDS011;6427;49.754;6.106;2023-02-26T07:15:36;6.67;;;4.57;;
12725;SDS011;6427;49.754;6.106;2023-02-26T07:18:04;7.17;;;4.23;;
12725;SDS011;6427;49.754;6.106;2023-02-26T07:20:32;7.53;;;4.20;;
12725;SDS011;6427;49.754;6.106;2023-02-26T07:22:59;6.07;;;4.20;;
12725;SDS011;6427;49.754;6.106;2023-02-26T07:25:27;9.03;;;3.80;;
12725;SDS011;6427;49.754;6.106;2023-02-26T07:27:55;6.57;;;4.20;;
12725;SDS011;6427;49.754;6.106;2023-02-26T07:30:22;7.90;;;3.77;;
12725;SDS011;6427;49.754;6.106;2023-02-26T07:32:50;6.73;;;4.03;;
12725;SDS011;6427;49.754;6.106;2023-02-26T07:35:17;6.23;;;3.90;;
12725;SDS011;6427;49.754;6.106;2023-02-26T07:37:45;7.10;;;3.80;;
12725;SDS011;6427;49.754;6.106;2023-02-26T07:40:12;6.23;;;3.60;;
12725;SDS011;6427;49.754;6.106;2023-02-26T07:42:40;5.30;;;3.53;;
12725;SDS011;6427;49.754;6.106;2023-02-26T07:45:08;5.17;;;3.50;;
12725;SDS011;6427;49.754;6.106;2023-02-26T07:47:37;6.40;;;3.30;;
12725;SDS011;6427;49.754;6.106;2023-02-26T07:50:04;5.20;;;2.80;;
12725;SDS011;6427;49.754;6.106;2023-02-26T07:52:32;6.27;;;2.90;;
12725;SDS011;6427;49.754;6.106;2023-02-26T07:54:59;5.23;;;3.03;;
12725;SDS011;6427;49.754;6.106;2023-02-26T07:57:27;5.80;;;3.30;;
12725;SDS011;6427;49.754;6.106;2023-02-26T07:59:55;4.60;;;2.73;;
12725;SDS011;6427;49.754;6.106;2023-02-26T08:02:22;6.90;;;2.83;;
12725;SDS011;6427;49.754;6.106;2023-02-26T08:04:50;7.67;;;2.70;;
12725;SDS011;6427;49.754;6.106;2023-02-26T08:07:18;5.97;;;2.50;;
12725;SDS011;6427;49.754;6.106;2023-02-26T08:09:46;5.63;;;2.97;;
12725;SDS011;6427;49.754;6.106;2023-02-26T08:12:14;5.43;;;2.60;;
12725;SDS011;6427;49.754;6.106;2023-02-26T08:14:42;6.67;;;2.50;;
12725;SDS011;6427;49.754;6.106;2023-02-26T08:17:10;5.37;;;3.20;;
12725;SDS011;6427;49.754;6.106;2023-02-26T08:19:38;3.73;;;2.60;;
12725;SDS011;6427;49.754;6.106;2023-02-26T08:22:05;5.17;;;2.30;;
12725;SDS011;6427;49.754;6.106;2023-02-26T08:24:33;5.40;;;2.87;;
12725;SDS011;6427;49.754;6.106;2023-02-26T08:27:00;4.37;;;2.90;;
12725;SDS011;6427;49.754;6.106;2023-02-26T08:29:28;7.40;;;2.90;;
12725;SDS011;6427;49.754;6.106;2023-02-26T08:31:55;3.67;;;2.00;;
12725;SDS011;6427;49.754;6.106;2023-02-26T08:34:23;4.70;;;2.13;;
12725;SDS011;6427;49.754;6.106;2023-02-26T08:36:51;4.45;;;2.22;;
12725;SDS011;6427;49.754;6.106;2023-02-26T08:39:19;7.67;;;2.10;;
12725;SDS011;6427;49.754;6.106;2023-02-26T08:41:47;4.43;;;2.30;;
12725;SDS011;6427;49.754;6.106;2023-02-26T08:44:15;3.53;;;2.23;;
12725;SDS011;6427;49.754;6.106;2023-02-26T08:46:42;6.37;;;2.70;;
12725;SDS011;6427;49.754;6.106;2023-02-26T08:49:10;3.10;;;2.10;;
12725;SDS011;6427;49.754;6.106;2023-02-26T08:51:38;4.47;;;1.97;;
12725;SDS011;6427;49.754;6.106;2023-02-26T08:54:06;3.10;;;1.70;;
12725;SDS011;6427;49.754;6.106;2023-02-26T08:56:34;2.83;;;1.90;;
12725;SDS011;6427;49.754;6.106;2023-02-26T08:59:02;3.10;;;2.28;;
12725;SDS011;6427;49.754;6.106;2023-02-26T09:01:30;5.17;;;1.77;;
12725;SDS011;6427;49.754;6.106;2023-02-26T09:03:58;3.23;;;2.03;;
12725;SDS011;6427;49.754;6.106;2023-02-26T09:06:25;2.80;;;1.90;;
12725;SDS011;6427;49.754;6.106;2023-02-26T09:08:53;2.23;;;1.43;;
12725;SDS011;6427;49.754;6.106;2023-02-26T09:11:21;3.73;;;1.40;;
12725;SDS011;6427;49.754;6.106;2023-02-26T09:13:48;3.13;;;1.30;;
12725;SDS011;6427;49.754;6.106;2023-02-26T09:16:17;2.83;;;1.70;;
12725;SDS011;6427;49.754;6.106;2023-02-26T09:18:45;3.77;;;1.40;;
12725;SDS011;6427;49.754;6.106;2023-02-26T09:21:12;2.30;;;1.10;;
12725;SDS011;6427;49.754;6.106;2023-02-26T09:23:40;4.57;;;1.40;;
12725;SDS011;6427;49.754;6.106;2023-02-26T09:26:08;2.27;;;1.30;;
12725;SDS011;6427;49.754;6.106;2023-02-26T09:28:35;3.67;;;1.60;;
12725;SDS011;6427;49.754;6.106;2023-02-26T09:31:03;3.47;;;1.10;;
12725;SDS011;6427;49.754;6.106;2023-02-26T09:33:31;4.37;;;0.97;;
12725;SDS011;6427;49.754;6.106;2023-02-26T09:35:59;2.03;;;1.10;;
12725;SDS011;6427;49.754;6.106;2023-02-26T09:38:27;3.90;;;1.55;;
12725;SDS011;6427;49.754;6.106;2023-02-26T09:44:13;2.97;;;1.13;;
12725;SDS011;6427;49.754;6.106;2023-02-26T09:46:47;4.10;;;1.40;;
12725;SDS011;6427;49.754;6.106;2023-02-26T09:49:16;1.73;;;1.10;;
12725;SDS011;6427;49.754;6.106;2023-02-26T09:52:23;2.83;;;1.30;;
12725;SDS011;6427;49.754;6.106;2023-02-26T09:54:46;3.33;;;1.13;;
12725;SDS011;6427;49.754;6.106;2023-02-26T09:57:14;3.33;;;1.20;;
12725;SDS011;6427;49.754;6.106;2023-02-26T09:59:40;2.60;;;1.20;;
12725;SDS011;6427;49.754;6.106;2023-02-26T10:02:15;3.70;;;1.50;;
12725;SDS011;6427;49.754;6.106;2023-02-26T10:04:47;2.40;;;1.20;;
12725;SDS011;6427;49.754;6.106;2023-02-26T10:07:27;2.37;;;1.20;;
12725;SDS011;6427;49.754;6.106;2023-02-26T10:12:35;2.72;;;1.52;;
12725;SDS011;6427;49.754;6.106;2023-02-26T10:17:53;2.50;;;0.70;;
12725;SDS011;6427;49.754;6.106;2023-02-26T10:26:01;2.40;;;0.90;;
12725;SDS011;6427;49.754;6.106;2023-02-26T10:28:47;2.97;;;0.80;;
12725;SDS011;6427;49.754;6.106;2023-02-26T10:31:28;1.93;;;0.80;;
12725;SDS011;6427;49.754;6.106;2023-02-26T10:34:03;5.50;;;1.20;;
12725;SDS011;6427;49.754;6.106;2023-02-26T10:36:34;3.00;;;0.80;;
12725;SDS011;6427;49.754;6.106;2023-02-26T10:39:03;4.07;;;0.80;;
12725;SDS011;6427;49.754;6.106;2023-02-26T10:41:26;0.90;;;0.60;;
12725;SDS011;6427;49.754;6.106;2023-02-26T10:46:29;1.50;;;0.77;;
12725;SDS011;6427;49.754;6.106;2023-02-26T10:49:06;1.53;;;0.63;;
12725;SDS011;6427;49.754;6.106;2023-02-26T10:51:31;2.17;;;0.90;;
12725;SDS011;6427;49.754;6.106;2023-02-26T10:53:59;1.37;;;0.80;;
12725;SDS011;6427;49.754;6.106;2023-02-26T10:56:32;1.17;;;0.60;;
12725;SDS011;6427;49.754;6.106;2023-02-26T10:58:59;0.70;;;0.50;;
12725;SDS011;6427;49.754;6.106;2023-02-26T11:01:28;1.87;;;0.70;;
12725;SDS011;6427;49.754;6.106;2023-02-26T11:06:37;1.67;;;0.50;;
12725;SDS011;6427;49.754;6.106;2023-02-26T11:09:17;0.53;;;0.30;;
12725;SDS011;6427;49.754;6.106;2023-02-26T11:11:41;2.37;;;0.60;;
12725;SDS011;6427;49.754;6.106;2023-02-26T11:14:20;0.97;;;0.40;;
12725;SDS011;6427;49.754;6.106;2023-02-26T11:16:49;0.97;;;0.30;;
12725;SDS011;6427;49.754;6.106;2023-02-26T11:19:15;0.47;;;0.30;;
12725;SDS011;6427;49.754;6.106;2023-02-26T11:21:44;3.17;;;0.77;;
12725;SDS011;6427;49.754;6.106;2023-02-26T11:24:12;0.53;;;0.40;;
12725;SDS011;6427;49.754;6.106;2023-02-26T11:26:53;5.23;;;0.73;;
12725;SDS011;6427;49.754;6.106;2023-02-26T11:29:21;1.77;;;0.70;;
12725;SDS011;6427;49.754;6.106;2023-02-26T11:31:55;1.47;;;0.70;;
12725;SDS011;6427;49.754;6.106;2023-02-26T11:34:23;0.90;;;0.63;;
12725;SDS011;6427;49.754;6.106;2023-02-26T11:36:50;2.20;;;0.87;;
12725;SDS011;6427;49.754;6.106;2023-02-26T11:39:19;1.83;;;0.50;;
12725;SDS011;6427;49.754;6.106;2023-02-26T11:41:46;1.70;;;0.73;;
12725;SDS011;6427;49.754;6.106;2023-02-26T11:44:17;1.60;;;0.90;;
12725;SDS011;6427;49.754;6.106;2023-02-26T11:46:54;2.83;;;0.70;;
12725;SDS011;6427;49.754;6.106;2023-02-26T11:49:21;1.03;;;0.57;;
12725;SDS011;6427;49.754;6.106;2023-02-26T11:51:48;2.97;;;1.10;;
12725;SDS011;6427;49.754;6.106;2023-02-26T11:54:21;0.77;;;0.57;;
12725;SDS011;6427;49.754;6.106;2023-02-26T11:56:49;1.50;;;0.60;;
12725;SDS011;6427;49.754;6.106;2023-02-26T12:01:45;1.63;;;0.90;;
12725;SDS011;6427;49.754;6.106;2023-02-26T12:04:13;0.87;;;0.63;;
12725;SDS011;6427;49.754;6.106;2023-02-26T12:06:41;0.50;;;0.47;;
12725;SDS011;6427;49.754;6.106;2023-02-26T12:09:10;1.00;;;0.70;;
12725;SDS011;6427;49.754;6.106;2023-02-26T12:14:41;1.23;;;0.63;;
12725;SDS011;6427;49.754;6.106;2023-02-26T12:17:29;2.43;;;0.90;;
12725;SDS011;6427;49.754;6.106;2023-02-26T12:22:48;2.73;;;0.77;;
12725;SDS011;6427;49.754;6.106;2023-02-26T12:25:20;1.12;;;0.82;;
12725;SDS011;6427;49.754;6.106;2023-02-26T12:28:03;2.30;;;0.70;;
12725;SDS011;6427;49.754;6.106;2023-02-26T12:33:20;1.20;;;0.77;;
12725;SDS011;6427;49.754;6.106;2023-02-26T12:35:46;1.70;;;0.87;;
12725;SDS011;6427;49.754;6.106;2023-02-26T12:38:28;2.87;;;0.80;;
12725;SDS011;6427;49.754;6.106;2023-02-26T12:41:23;0.90;;;0.47;;
12725;SDS011;6427;49.754;6.106;2023-02-26T12:43:50;1.47;;;0.73;;
12725;SDS011;6427;49.754;6.106;2023-02-26T12:48:52;4.50;;;0.87;;
12725;SDS011;6427;49.754;6.106;2023-02-26T12:54:20;1.40;;;1.00;;
12725;SDS011;6427;49.754;6.106;2023-02-26T13:10:30;1.50;;;0.70;;
12725;SDS011;6427;49.754;6.106;2023-02-26T13:15:49;0.67;;;0.57;;
12725;SDS011;6427;49.754;6.106;2023-02-26T13:21:17;2.37;;;0.90;;
12725;SDS011;6427;49.754;6.106;2023-02-26T13:23:53;0.93;;;0.60;;
12725;SDS011;6427;49.754;6.106;2023-02-26T13:26:21;1.90;;;0.60;;
12725;SDS011;6427;49.754;6.106;2023-02-26T13:28:56;1.12;;;0.85;;
12725;SDS011;6427;49.754;6.106;2023-02-26T13:31:35;1.27;;;0.87;;
12725;SDS011;6427;49.754;6.106;2023-02-26T13:34:03;0.90;;;0.70;;
12725;SDS011;6427;49.754;6.106;2023-02-26T13:36:32;1.40;;;0.80;;
12725;SDS011;6427;49.754;6.106;2023-02-26T13:56:06;1.40;;;0.67;;
12725;SDS011;6427;49.754;6.106;2023-02-26T13:58:42;0.63;;;0.57;;
12725;SDS011;6427;49.754;6.106;2023-02-26T14:01:07;0.60;;;0.60;;
12725;SDS011;6427;49.754;6.106;2023-02-26T14:03:41;2.70;;;0.90;;
12725;SDS011;6427;49.754;6.106;2023-02-26T14:08:48;1.23;;;0.50;;
12725;SDS011;6427;49.754;6.106;2023-02-26T14:11:25;1.27;;;0.80;;
12725;SDS011;6427;49.754;6.106;2023-02-26T14:14:15;1.07;;;0.53;;
12725;SDS011;6427;49.754;6.106;2023-02-26T14:16:44;1.00;;;0.80;;
12725;SDS011;6427;49.754;6.106;2023-02-26T14:21:49;0.60;;;0.50;;
12725;SDS011;6427;49.754;6.106;2023-02-26T14:24:18;1.90;;;0.40;;
12725;SDS011;6427;49.754;6.106;2023-02-26T14:26:47;0.70;;;0.50;;
12725;SDS011;6427;49.754;6.106;2023-02-26T14:29:14;1.37;;;0.60;;
12725;SDS011;6427;49.754;6.106;2023-02-26T14:31:55;0.83;;;0.63;;
12725;SDS011;6427;49.754;6.106;2023-02-26T14:34:22;1.40;;;0.40;;
12725;SDS011;6427;49.754;6.106;2023-02-26T14:36:53;1.07;;;0.50;;
12725;SDS011;6427;49.754;6.106;2023-02-26T14:39:24;2.47;;;0.50;;
12725;SDS011;6427;49.754;6.106;2023-02-26T14:41:51;2.13;;;1.03;;
12725;SDS011;6427;49.754;6.106;2023-02-26T14:44:19;1.00;;;0.60;;
12725;SDS011;6427;49.754;6.106;2023-02-26T14:46:46;0.60;;;0.40;;
12725;SDS011;6427;49.754;6.106;2023-02-26T14:49:17;1.27;;;0.40;;
12725;SDS011;6427;49.754;6.106;2023-02-26T14:57:45;2.40;;;0.70;;
12725;SDS011;6427;49.754;6.106;2023-02-26T15:00:38;1.83;;;0.50;;
12725;SDS011;6427;49.754;6.106;2023-02-26T15:05:42;0.40;;;0.40;;
12725;SDS011;6427;49.754;6.106;2023-02-26T15:08:23;0.90;;;0.50;;
12725;SDS011;6427;49.754;6.106;2023-02-26T15:13:24;2.63;;;0.50;;
12725;SDS011;6427;49.754;6.106;2023-02-26T15:22:00;2.33;;;0.50;;
12725;SDS011;6427;49.754;6.106;2023-02-26T15:24:30;0.30;;;0.30;;
12725;SDS011;6427;49.754;6.106;2023-02-26T15:26:59;2.53;;;0.57;;
12725;SDS011;6427;49.754;6.106;2023-02-26T15:29:26;1.50;;;0.60;;
12725;SDS011;6427;49.754;6.106;2023-02-26T15:31:53;1.10;;;0.50;;
12725;SDS011;6427;49.754;6.106;2023-02-26T15:34:20;0.43;;;0.40;;
12725;SDS011;6427;49.754;6.106;2023-02-26T15:36:48;0.70;;;0.40;;
12725;SDS011;6427;49.754;6.106;2023-02-26T15:39:16;0.23;;;0.10;;
12725;SDS011;6427;49.754;6.106;2023-02-26T15:41:46;0.73;;;0.40;;
12725;SDS011;6427;49.754;6.106;2023-02-26T15:44:15;1.80;;;0.50;;
12725;SDS011;6427;49.754;6.106;2023-02-26T15:46:46;0.50;;;0.30;;
12725;SDS011;6427;49.754;6.106;2023-02-26T15:49:22;0.50;;;0.20;;
12725;SDS011;6427;49.754;6.106;2023-02-26T15:51:41;1.23;;;0.40;;
12725;SDS011;6427;49.754;6.106;2023-02-26T15:54:09;0.73;;;0.40;;
12725;SDS011;6427;49.754;6.106;2023-02-26T15:56:36;0.40;;;0.40;;
12725;SDS011;6427;49.754;6.106;2023-02-26T15:59:10;1.70;;;0.70;;
12725;SDS011;6427;49.754;6.106;2023-02-26T16:01:37;2.10;;;0.53;;
12725;SDS011;6427;49.754;6.106;2023-02-26T16:04:07;1.13;;;0.43;;
12725;SDS011;6427;49.754;6.106;2023-02-26T16:06:36;0.80;;;0.40;;
12725;SDS011;6427;49.754;6.106;2023-02-26T16:09:05;1.53;;;0.30;;
12725;SDS011;6427;49.754;6.106;2023-02-26T16:11:33;1.50;;;0.73;;
12725;SDS011;6427;49.754;6.106;2023-02-26T16:13:59;1.00;;;0.50;;
12725;SDS011;6427;49.754;6.106;2023-02-26T16:16:38;1.47;;;0.47;;
12725;SDS011;6427;49.754;6.106;2023-02-26T16:18:55;1.63;;;0.60;;
12725;SDS011;6427;49.754;6.106;2023-02-26T16:21:26;1.30;;;0.37;;
12725;SDS011;6427;49.754;6.106;2023-02-26T16:23:52;0.67;;;0.33;;
12725;SDS011;6427;49.754;6.106;2023-02-26T16:26:25;0.43;;;0.30;;
12725;SDS011;6427;49.754;6.106;2023-02-26T16:28:49;1.47;;;0.60;;
12725;SDS011;6427;49.754;6.106;2023-02-26T16:31:20;1.27;;;0.60;;
12725;SDS011;6427;49.754;6.106;2023-02-26T16:33:59;1.67;;;0.60;;
12725;SDS011;6427;49.754;6.106;2023-02-26T16:36:25;1.33;;;0.70;;
12725;SDS011;6427;49.754;6.106;2023-02-26T16:41:33;0.70;;;0.40;;
12725;SDS011;6427;49.754;6.106;2023-02-26T16:44:03;0.77;;;0.50;;
12725;SDS011;6427;49.754;6.106;2023-02-26T16:46:42;2.63;;;0.60;;
12725;SDS011;6427;49.754;6.106;2023-02-26T16:49:14;9.37;;;2.43;;
12725;SDS011;6427;49.754;6.106;2023-02-26T16:51:37;3.53;;;1.10;;
12725;SDS011;6427;49.754;6.106;2023-02-26T16:54:08;5.57;;;1.67;;
12725;SDS011;6427;49.754;6.106;2023-02-26T16:56:33;1.77;;;0.70;;
12725;SDS011;6427;49.754;6.106;2023-02-26T16:59:04;3.27;;;0.80;;
12725;SDS011;6427;49.754;6.106;2023-02-26T17:01:48;0.80;;;0.40;;
12725;SDS011;6427;49.754;6.106;2023-02-26T17:04:08;0.60;;;0.40;;
12725;SDS011;6427;49.754;6.106;2023-02-26T17:06:36;1.25;;;0.68;;
12725;SDS011;6427;49.754;6.106;2023-02-26T17:09:02;3.17;;;0.70;;
12725;SDS011;6427;49.754;6.106;2023-02-26T17:11:31;1.33;;;0.63;;
12725;SDS011;6427;49.754;6.106;2023-02-26T17:14:07;2.90;;;1.07;;
12725;SDS011;6427;49.754;6.106;2023-02-26T17:16:45;2.30;;;1.20;;
12725;SDS011;6427;49.754;6.106;2023-02-26T17:19:13;2.30;;;1.30;;
12725;SDS011;6427;49.754;6.106;2023-02-26T17:21:41;3.67;;;1.13;;
12725;SDS011;6427;49.754;6.106;2023-02-26T17:24:10;3.72;;;1.30;;
12725;SDS011;6427;49.754;6.106;2023-02-26T17:26:35;1.63;;;0.57;;
12725;SDS011;6427;49.754;6.106;2023-02-26T17:29:04;1.03;;;0.60;;
12725;SDS011;6427;49.754;6.106;2023-02-26T17:31:31;1.80;;;0.87;;